Time;durP1;ratioP1;P1;durP2;ratioP2;P2;SDS_P1;SDS_P2;PMS_P1;PMS_P2;Temp;Humidity;BMP_temperature;BMP_pressure;BME280_temperature;BME280_humidity;BME280_pressure;Samples;Min_cycle;Max_cycle;Signal;HPM_P1;HPM_P2
2021/11/16 00:00:17;;;;;;;;;;;;;;;12.97;61.65;101673.47;4865878;28;111891;-68
2021/11/16 00:02:43;;;;;;;;;;;;;;;12.96;61.33;101667.22;4868686;28;98913;-59
2021/11/16 00:05:10;;;;;;;;;;;;;;;12.96;61.63;101659.09;4873178;28;98023;-66
2021/11/16 00:07:35;;;;;;;;;;;;;;;12.96;61.23;101653.69;4883043;28;98005;-68
2021/11/16 00:10:02;;;;;;;;;;;;;;;12.96;61.44;101653.69;4882707;28;128162;-59
2021/11/16 00:12:28;;;;;;;;;;;;;;;12.96;61.59;101661.81;4871441;28;122192;-59
2021/11/16 00:14:54;;;;;;;;;;;;;;;12.96;61.46;101658.28;4848058;28;98225;-59
2021/11/16 00:17:20;;;;;;;;;;;;;;;12.96;61.50;101655.59;4865663;28;122475;-68
2021/11/16 00:19:48;;;;;;;;;;;;;;;12.97;61.66;101659.94;4865299;28;98063;-59
2021/11/16 00:22:18;;;;;;;;;;;;;;;12.96;61.61;101661.81;4866728;28;98614;-69
2021/11/16 00:25:34;;;;;;;;;;;;;;;12.96;61.56;101658.28;4866778;28;98321;-67
2021/11/16 00:27:33;;;;;;;;;;;;;;;12.96;61.33;101667.22;4879466;28;98001;-68
2021/11/16 00:29:58;;;;;;;;;;;;;;;12.97;61.48;101673.47;4884726;28;98508;-59
2021/11/16 00:32:24;;;;;;;;;;;;;;;12.96;61.48;101678.06;4883818;28;129753;-68
2021/11/16 00:34:50;;;;;;;;;;;;;;;12.97;61.57;101670.78;4882291;28;127640;-69
2021/11/16 00:37:24;;;;;;;;;;;;;;;12.97;61.48;101665.38;4867150;28;121565;-59
2021/11/16 00:39:51;;;;;;;;;;;;;;;12.96;61.58;101672.63;4880920;28;98293;-59
2021/11/16 00:42:17;;;;;;;;;;;;;;;12.96;61.58;101659.09;4875231;28;116118;-59
2021/11/16 00:44:43;;;;;;;;;;;;;;;12.97;61.64;101668.06;4883808;28;127501;-68
2021/11/16 00:47:09;;;;;;;;;;;;;;;12.96;61.40;101669.13;4885650;28;98048;-68
2021/11/16 00:49:35;;;;;;;;;;;;;;;12.95;61.66;101665.59;4883653;28;127725;-69
2021/11/16 00:52:02;;;;;;;;;;;;;;;12.95;61.58;101668.31;4884007;28;98252;-68
2021/11/16 00:54:27;;;;;;;;;;;;;;;12.94;61.69;101666.69;4871749;28;97913;-69
2021/11/16 00:56:53;;;;;;;;;;;;;;;12.95;61.58;101664.78;4864383;28;122446;-68
2021/11/16 00:59:19;;;;;;;;;;;;;;;12.94;61.40;101658.56;4847580;28;128166;-59
2021/11/16 01:01:46;;;;;;;;;;;;;;;12.94;61.73;101655.84;4865448;28;129020;-68
2021/11/16 01:04:15;;;;;;;;;;;;;;;12.94;61.53;101652.34;4865740;28;98030;-59
2021/11/16 01:06:41;;;;;;;;;;;;;;;12.93;61.57;101648.81;4867058;28;98181;-69
2021/11/16 01:09:07;;;;;;;;;;;;;;;12.94;61.52;101646.91;4883518;28;123618;-68
2021/11/16 01:11:33;;;;;;;;;;;;;;;12.92;61.58;101649.03;4882489;28;129180;-59
2021/11/16 01:13:59;;;;;;;;;;;;;;;12.92;61.63;101659.88;4883514;28;98731;-68
2021/11/16 01:16:25;;;;;;;;;;;;;;;12.92;61.44;101654.47;4884388;28;123665;-68
2021/11/16 01:18:51;;;;;;;;;;;;;;;12.91;61.56;101655.53;4881397;28;103751;-68
2021/11/16 01:21:17;;;;;;;;;;;;;;;12.91;61.56;101656.34;4885161;28;129666;-68
2021/11/16 01:23:42;;;;;;;;;;;;;;;12.91;61.45;101653.66;4881419;28;128629;-59
2021/11/16 01:26:09;;;;;;;;;;;;;;;12.91;61.46;101645.53;4883215;28;123416;-67
2021/11/16 01:28:35;;;;;;;;;;;;;;;12.90;61.69;101633.06;4883432;28;97967;-59
2021/11/16 01:31:04;;;;;;;;;;;;;;;12.89;61.53;101634.16;4865884;28;99088;-59
2021/11/16 01:33:49;;;;;;;;;;;;;;;12.90;61.39;101630.38;4849295;28;114440;-68
2021/11/16 01:36:15;;;;;;;;;;;;;;;12.91;61.52;101639.31;4866833;28;98023;-68
2021/11/16 01:38:42;;;;;;;;;;;;;;;12.89;61.64;101636.88;4863996;28;98931;-58
2021/11/16 01:41:08;;;;;;;;;;;;;;;12.89;61.42;101634.16;4864998;28;99053;-67
2021/11/16 01:43:34;;;;;;;;;;;;;;;12.90;61.45;101634.97;4864270;28;98302;-59
2021/11/16 01:46:02;;;;;;;;;;;;;;;12.90;61.81;101626.84;4871714;28;98911;-59
2021/11/16 01:48:29;;;;;;;;;;;;;;;12.89;61.61;101625.19;4882140;28;126276;-67
2021/11/16 01:50:55;;;;;;;;;;;;;;;12.89;61.72;101625.19;4881908;28;98678;-68
2021/11/16 01:53:21;;;;;;;;;;;;;;;12.89;61.58;101627.91;4885742;28;97904;-59
2021/11/16 01:55:47;;;;;;;;;;;;;;;12.89;61.83;101630.59;4884313;28;100810;-68
2021/11/16 01:58:13;;;;;;;;;;;;;;;12.89;61.50;101633.31;4881517;28;108540;-68
2021/11/16 02:00:40;;;;;;;;;;;;;;;12.89;61.47;101630.59;4882925;28;127796;-59
2021/11/16 02:03:08;;;;;;;;;;;;;;;12.89;61.51;101636.00;4884588;28;98038;-59
2021/11/16 02:05:39;;;;;;;;;;;;;;;12.88;61.59;101637.09;4882354;28;97830;-59
2021/11/16 02:08:05;;;;;;;;;;;;;;;12.88;61.49;101637.09;4888196;28;98883;-69
2021/11/16 02:10:31;;;;;;;;;;;;;;;12.88;61.46;101632.50;4887464;28;126026;-59
2021/11/16 02:12:57;;;;;;;;;;;;;;;12.88;61.74;101629.78;4872705;28;121464;-59
2021/11/16 02:15:23;;;;;;;;;;;;;;;12.88;61.60;101626.28;4883282;28;98260;-59
2021/11/16 02:17:49;;;;;;;;;;;;;;;12.88;61.44;101623.56;4885243;28;120202;-59
2021/11/16 02:20:15;;;;;;;;;;;;;;;12.87;61.48;101622.75;4887502;28;99146;-68
2021/11/16 02:22:41;;;;;;;;;;;;;;;12.88;61.66;101626.28;4887935;28;119276;-59
2021/11/16 02:25:08;;;;;;;;;;;;;;;12.87;61.72;101614.63;4881336;28;122275;-59
2021/11/16 02:27:33;;;;;;;;;;;;;;;12.88;61.46;101615.44;4884240;28;121259;-59
2021/11/16 02:29:59;;;;;;;;;;;;;;;12.86;61.49;101615.72;4880439;28;128014;-58
2021/11/16 02:32:25;;;;;;;;;;;;;;;12.87;61.75;101611.13;4865712;28;128042;-58
2021/11/16 02:34:51;;;;;;;;;;;;;;;12.88;61.72;101610.03;4867494;28;97818;-68
2021/11/16 02:37:17;;;;;;;;;;;;;;;12.87;61.75;101616.53;4881445;28;129740;-67
2021/11/16 02:39:43;;;;;;;;;;;;;;;12.87;61.59;101613.81;4883777;28;126980;-58
2021/11/16 02:42:09;;;;;;;;;;;;;;;12.87;61.45;101611.13;4881324;28;97936;-58
2021/11/16 02:44:35;;;;;;;;;;;;;;;12.88;61.75;101615.44;4849564;28;102432;-67
2021/11/16 02:47:01;;;;;;;;;;;;;;;12.87;61.56;101609.22;4849297;28;128426;-59
2021/11/16 02:49:27;;;;;;;;;;;;;;;12.87;61.51;101611.94;4865609;28;128445;-58
2021/11/16 02:51:52;;;;;;;;;;;;;;;12.86;61.82;101609.50;4866687;28;127567;-58
2021/11/16 02:54:19;;;;;;;;;;;;;;;12.87;61.57;101611.13;4885215;28;123460;-58
2021/11/16 02:56:46;;;;;;;;;;;;;;;12.86;61.45;101617.59;4886586;28;112854;-68
2021/11/16 02:59:12;;;;;;;;;;;;;;;12.84;61.76;101615.13;4885697;28;98602;-58
2021/11/16 03:01:38;;;;;;;;;;;;;;;12.85;61.68;101616.78;4886490;28;98792;-59
2021/11/16 03:04:04;;;;;;;;;;;;;;;12.85;61.55;101624.06;4885330;28;97969;-68
2021/11/16 03:06:31;;;;;;;;;;;;;;;12.83;61.70;101615.41;4850864;28;128213;-59
2021/11/16 03:08:57;;;;;;;;;;;;;;;12.85;61.67;101624.06;4866515;28;97998;-67
2021/11/16 03:11:23;;;;;;;;;;;;;;;12.84;61.64;101630.56;4879984;28;98573;-67
2021/11/16 03:13:49;;;;;;;;;;;;;;;12.83;61.48;101623.53;4867930;28;123533;-67
2021/11/16 03:16:19;;;;;;;;;;;;;;;12.83;61.72;101613.50;4869050;28;127211;-68
2021/11/16 03:18:48;;;;;;;;;;;;;;;12.83;61.52;101618.91;4845966;28;99283;-67
2021/11/16 03:21:15;;;;;;;;;;;;;;;12.83;61.69;101612.69;4867605;28;104711;-58
2021/11/16 03:23:43;;;;;;;;;;;;;;;12.82;61.63;101605.66;4866046;28;97989;-58
2021/11/16 03:26:09;;;;;;;;;;;;;;;12.83;61.64;101616.22;4873196;28;98800;-67
2021/11/16 03:28:37;;;;;;;;;;;;;;;12.83;61.63;101621.63;4884475;28;106470;-58
2021/11/16 03:31:11;;;;;;;;;;;;;;;12.83;61.51;101624.34;4851641;28;97989;-67
2021/11/16 03:33:38;;;;;;;;;;;;;;;12.82;61.56;101622.72;4886821;28;97863;-58
2021/11/16 03:36:04;;;;;;;;;;;;;;;12.83;61.49;101626.22;4882063;28;128099;-67
2021/11/16 03:38:30;;;;;;;;;;;;;;;12.83;61.58;101626.22;4883118;28;98879;-58
2021/11/16 03:40:56;;;;;;;;;;;;;;;12.82;61.71;101632.72;4849761;28;105959;-58
2021/11/16 03:43:23;;;;;;;;;;;;;;;12.82;61.65;101627.31;4865669;28;123192;-58
2021/11/16 03:45:50;;;;;;;;;;;;;;;12.82;61.57;101627.31;4865699;28;99157;-66
2021/11/16 03:48:16;;;;;;;;;;;;;;;12.81;61.56;101623.78;4865903;28;99331;-67
2021/11/16 03:50:43;;;;;;;;;;;;;;;12.82;61.79;101630.81;4864559;28;118776;-59
2021/11/16 03:53:10;;;;;;;;;;;;;;;12.83;61.67;101634.34;4875515;28;98613;-58
2021/11/16 03:55:37;;;;;;;;;;;;;;;12.83;61.39;101631.63;4885081;28;98291;-60
2021/11/16 03:58:04;;;;;;;;;;;;;;;12.82;61.73;101633.53;4886443;28;98143;-58
2021/11/16 04:00:33;;;;;;;;;;;;;;;12.83;61.68;101634.34;4883932;28;98175;-58
2021/11/16 04:02:59;;;;;;;;;;;;;;;12.82;61.47;101625.41;4886162;28;110452;-68
2021/11/16 04:05:25;;;;;;;;;;;;;;;12.83;61.61;101629.75;4884899;28;98136;-60
2021/11/16 04:07:54;;;;;;;;;;;;;;;12.84;61.55;101625.16;4884238;28;98374;-68
2021/11/16 04:10:22;;;;;;;;;;;;;;;12.84;61.76;101625.16;4884496;28;98311;-59
2021/11/16 04:12:48;;;;;;;;;;;;;;;12.84;61.59;101617.84;4877449;28;98022;-59
2021/11/16 04:15:15;;;;;;;;;;;;;;;12.85;61.47;101622.22;4846641;28;99336;-59
2021/11/16 04:17:43;;;;;;;;;;;;;;;12.85;61.60;101614.09;4865628;28;98249;-59
2021/11/16 04:20:16;;;;;;;;;;;;;;;12.87;61.63;101619.22;4866147;28;98022;-68
2021/11/16 04:22:42;;;;;;;;;;;;;;;12.87;61.71;101608.41;4865645;28;97865;-59
2021/11/16 04:25:09;;;;;;;;;;;;;;;12.87;61.34;101603.81;4865002;28;114105;-59
2021/11/16 04:27:35;;;;;;;;;;;;;;;12.88;61.43;101612.75;4864341;28;103725;-59
2021/11/16 04:30:02;;;;;;;;;;;;;;;12.88;61.67;101608.16;4863979;28;98395;-68
2021/11/16 04:32:28;;;;;;;;;;;;;;;12.89;61.59;101601.69;4866821;28;97846;-69
2021/11/16 04:34:54;;;;;;;;;;;;;;;12.89;61.47;101596.28;4867476;28;126955;-59
2021/11/16 04:37:19;;;;;;;;;;;;;;;12.89;61.59;101590.84;4883784;28;127024;-68
2021/11/16 04:39:45;;;;;;;;;;;;;;;12.88;61.66;101586.50;4881584;28;126919;-59
2021/11/16 04:42:11;;;;;;;;;;;;;;;12.90;61.58;101595.19;4883913;28;122452;-68
2021/11/16 04:44:37;;;;;;;;;;;;;;;12.90;61.57;101592.47;4885548;28;98539;-59
2021/11/16 04:47:04;;;;;;;;;;;;;;;12.91;61.85;101587.88;4876533;28;98877;-59
2021/11/16 04:49:35;;;;;;;;;;;;;;;12.90;61.49;101581.66;4865601;28;98173;-59
2021/11/16 04:52:12;;;;;;;;;;;;;;;12.91;61.39;101585.19;4866956;28;97950;-67
2021/11/16 04:55:06;;;;;;;;;;;;;;;12.91;61.55;101577.06;4866268;28;98667;-59
2021/11/16 05:02:40;;;;;;;;;;;;;;;12.93;61.37;101588.44;4865277;28;97849;-68
2021/11/16 05:05:09;;;;;;;;;;;;;;;12.92;61.38;101571.38;4877223;28;98618;-59
2021/11/16 05:07:36;;;;;;;;;;;;;;;12.92;61.62;101574.09;4865559;28;98900;-68
2021/11/16 05:10:03;;;;;;;;;;;;;;;12.93;61.74;101569.50;4853697;28;98346;-67
2021/11/16 05:12:30;;;;;;;;;;;;;;;12.93;61.52;101566.78;4865994;28;105707;-59
2021/11/16 05:14:57;;;;;;;;;;;;;;;12.93;61.33;101555.97;4865463;28;98698;-59
2021/11/16 05:17:23;;;;;;;;;;;;;;;12.93;61.61;101553.25;4866406;28;98857;-68
2021/11/16 05:19:49;;;;;;;;;;;;;;;12.93;61.35;101554.09;4863362;28;116096;-68
2021/11/16 05:22:15;;;;;;;;;;;;;;;12.93;61.63;101547.84;4864500;28;123260;-59
2021/11/16 05:24:41;;;;;;;;;;;;;;;12.93;61.51;101551.38;4846715;28;123088;-59
2021/11/16 05:27:08;;;;;;;;;;;;;;;12.94;61.35;101554.91;4865075;28;108636;-68
2021/11/16 05:29:34;;;;;;;;;;;;;;;12.93;61.53;101551.38;4866084;28;99988;-59
2021/11/16 05:32:00;;;;;;;;;;;;;;;12.93;61.14;101537.84;4873339;28;97922;-59
2021/11/16 05:34:26;;;;;;;;;;;;;;;12.94;61.27;101538.66;4845135;28;100732;-59
2021/11/16 05:36:52;;;;;;;;;;;;;;;12.94;61.44;101539.47;4862977;28;98546;-58
2021/11/16 05:39:18;;;;;;;;;;;;;;;12.94;61.52;101541.38;4844424;28;106904;-59
2021/11/16 05:41:46;;;;;;;;;;;;;;;12.94;61.25;101541.38;4860939;28;122869;-59
2021/11/16 05:44:11;;;;;;;;;;;;;;;12.94;61.44;101539.47;4873898;28;99151;-59
2021/11/16 05:46:37;;;;;;;;;;;;;;;12.94;61.32;101538.66;4880815;28;121127;-59
2021/11/16 05:49:03;;;;;;;;;;;;;;;12.95;61.46;101548.41;4881951;28;97983;-59
2021/11/16 05:51:29;;;;;;;;;;;;;;;12.95;61.42;101540.28;4880968;28;97641;-59
2021/11/16 05:54:01;;;;;;;;;;;;;;;12.95;61.34;101543.81;4881331;28;98393;-59
2021/11/16 05:56:32;;;;;;;;;;;;;;;12.96;61.60;101528.38;4851699;28;98620;-59
2021/11/16 05:58:58;;;;;;;;;;;;;;;12.96;61.51;101533.81;4844857;28;98143;-59
2021/11/16 06:01:29;;;;;;;;;;;;;;;12.96;61.34;101529.19;4862173;28;98080;-59
2021/11/16 06:03:55;;;;;;;;;;;;;;;12.96;61.43;101523.78;4862943;28;99003;-59
2021/11/16 06:06:25;;;;;;;;;;;;;;;12.95;61.35;101530.28;4880525;28;98609;-58
2021/11/16 06:08:52;;;;;;;;;;;;;;;12.96;61.43;101537.31;4881116;28;97831;-59
2021/11/16 06:11:19;;;;;;;;;;;;;;;12.95;61.48;101526.75;4865727;28;97861;-59
2021/11/16 06:13:45;;;;;;;;;;;;;;;12.94;61.40;101535.97;4862780;28;98212;-59
2021/11/16 06:16:11;;;;;;;;;;;;;;;12.94;61.61;101536.78;4861981;28;98497;-59
2021/11/16 06:18:38;;;;;;;;;;;;;;;12.94;61.33;101536.78;4861548;28;98524;-59
2021/11/16 06:21:04;;;;;;;;;;;;;;;12.95;61.54;101540.28;4858102;28;101529;-59
2021/11/16 06:23:30;;;;;;;;;;;;;;;12.94;61.33;101534.06;4880658;28;99016;-59
2021/11/16 06:25:56;;;;;;;;;;;;;;;12.94;61.41;101530.56;4880798;28;98718;-59
2021/11/16 06:28:22;;;;;;;;;;;;;;;12.94;61.33;101539.47;4870830;28;127667;-59
2021/11/16 06:30:48;;;;;;;;;;;;;;;12.94;61.44;101536.78;4869277;28;100628;-59
2021/11/16 06:33:19;;;;;;;;;;;;;;;12.95;61.59;101540.28;4862325;28;110239;-59
2021/11/16 06:35:45;;;;;;;;;;;;;;;12.95;61.40;101543.00;4879043;28;118691;-59
2021/11/16 06:38:11;;;;;;;;;;;;;;;12.94;61.37;101552.19;4846436;28;128663;-59
2021/11/16 06:40:37;;;;;;;;;;;;;;;12.94;61.34;101549.50;4868731;28;122591;-59
2021/11/16 06:43:03;;;;;;;;;;;;;;;12.94;61.42;101549.50;4863153;28;98225;-59
2021/11/16 06:45:29;;;;;;;;;;;;;;;12.93;61.27;101545.97;4863046;28;98262;-59
2021/11/16 06:47:55;;;;;;;;;;;;;;;12.95;61.38;101551.13;4860714;28;128023;-59
2021/11/16 06:50:21;;;;;;;;;;;;;;;12.96;61.34;101545.44;4863227;28;108239;-68
2021/11/16 06:52:48;;;;;;;;;;;;;;;12.97;61.37;101547.09;4864914;28;128110;-59
2021/11/16 06:55:15;;;;;;;;;;;;;;;12.99;61.37;101542.22;4867006;28;99109;-59
2021/11/16 06:57:43;;;;;;;;;;;;;;;12.99;61.33;101546.81;4883791;28;98799;-59
2021/11/16 07:00:10;;;;;;;;;;;;;;;13.02;61.35;101543.59;4886149;28;98200;-68
2021/11/16 07:02:36;;;;;;;;;;;;;;;13.04;61.21;101541.44;4885901;28;98249;-59
2021/11/16 07:05:11;;;;;;;;;;;;;;;13.07;61.33;101540.13;4885403;28;98751;-59
2021/11/16 07:07:43;;;;;;;;;;;;;;;13.09;61.44;101546.13;4886396;28;98360;-59
2021/11/16 07:10:10;;;;;;;;;;;;;;;13.09;61.27;101538.81;4880938;28;97984;-68
2021/11/16 07:12:38;;;;;;;;;;;;;;;13.09;61.29;101536.09;4868836;28;98542;-68
2021/11/16 07:15:04;;;;;;;;;;;;;;;13.11;61.35;101533.94;4867656;28;99029;-58
2021/11/16 07:17:30;;;;;;;;;;;;;;;13.13;61.36;101541.81;4868588;28;97589;-59
2021/11/16 07:19:59;;;;;;;;;;;;;;;13.14;61.18;101533.41;4869624;28;121748;-59
2021/11/16 07:22:26;;;;;;;;;;;;;;;13.21;61.10;101541.34;4886541;28;98560;-59
2021/11/16 07:25:02;;;;;;;;;;;;;;;13.21;61.00;101544.84;4885120;28;98757;-59
2021/11/16 07:27:49;;;;;;;;;;;;;;;13.27;61.21;101543.03;4867649;28;97950;-59
2021/11/16 07:30:23;;;;;;;;;;;;;;;13.33;60.92;101539.28;4860624;28;98112;-59
2021/11/16 07:32:51;;;;;;;;;;;;;;;13.34;61.12;101546.34;4867941;28;98744;-69
2021/11/16 07:35:26;;;;;;;;;;;;;;;13.41;60.69;101543.41;4852559;28;98272;-59
2021/11/16 07:38:03;;;;;;;;;;;;;;;13.50;60.54;101537.22;4883779;28;98689;-59
2021/11/16 07:40:29;;;;;;;;;;;;;;;13.53;60.77;101544.03;4880870;28;118976;-59
2021/11/16 07:43:16;;;;;;;;;;;;;;;13.62;60.96;101536.22;4877028;28;99134;-59
2021/11/16 07:45:49;;;;;;;;;;;;;;;13.71;60.38;101543.59;4864686;28;98486;-59
2021/11/16 07:48:19;;;;;;;;;;;;;;;13.76;60.33;101534.69;4874522;28;106443;-59
2021/11/16 07:50:49;;;;;;;;;;;;;;;13.85;60.49;101545.84;4883086;28;97843;-59
2021/11/16 07:53:22;;;;;;;;;;;;;;;13.89;60.52;101542.34;4882247;28;122797;-59
2021/11/16 07:55:57;;;;;;;;;;;;;;;13.99;60.39;101538.88;4883042;28;97736;-59
2021/11/16 07:58:35;;;;;;;;;;;;;;;14.04;60.23;101535.38;4883412;28;97880;-59
2021/11/16 08:01:05;;;;;;;;;;;;;;;14.18;60.19;101537.31;4876468;28;98074;-60
2021/11/16 08:03:35;;;;;;;;;;;;;;;14.38;60.04;101535.75;4884795;28;98149;-58
2021/11/16 08:06:18;;;;;;;;;;;;;;;14.57;59.50;101536.91;4876230;28;98594;-59
2021/11/16 08:11:37;;;;;;;;;;;;;;;15.20;58.65;101515.78;4877540;28;115952;-59
2021/11/16 08:14:09;;;;;;;;;;;;;;;15.53;58.64;101518.19;4873879;28;98382;-59
2021/11/16 08:16:57;;;;;;;;;;;;;;;15.77;58.25;101511.09;4846909;28;99011;-59
2021/11/16 08:19:26;;;;;;;;;;;;;;;16.42;57.10;101514.59;4892423;28;98620;-59
2021/11/16 08:21:59;;;;;;;;;;;;;;;16.97;56.67;101511.78;4880458;28;99106;-60
2021/11/16 08:24:29;;;;;;;;;;;;;;;17.42;56.12;101509.75;4864176;28;98442;-60
2021/11/16 08:26:55;;;;;;;;;;;;;;;17.36;56.51;101508.19;4846339;28;98516;-59
2021/11/16 08:29:36;;;;;;;;;;;;;;;16.87;57.86;101512.69;4845939;28;100647;-60
2021/11/16 08:32:08;;;;;;;;;;;;;;;16.72;58.13;101518.22;4864868;28;98234;-59
2021/11/16 08:34:36;;;;;;;;;;;;;;;16.48;58.44;101509.94;4867352;28;98156;-59
2021/11/16 08:37:05;;;;;;;;;;;;;;;16.33;58.85;101516.28;4882561;28;104337;-59
2021/11/16 08:39:36;;;;;;;;;;;;;;;16.25;59.09;101514.16;4882663;28;98492;-59
2021/11/16 08:42:07;;;;;;;;;;;;;;;16.11;59.31;101516.69;4878697;28;99126;-59
2021/11/16 08:44:35;;;;;;;;;;;;;;;16.00;59.30;101511.56;4862496;28;121819;-59
2021/11/16 08:47:09;;;;;;;;;;;;;;;15.91;59.82;101512.13;4863075;28;98166;-59
2021/11/16 08:49:35;;;;;;;;;;;;;;;15.82;59.51;101513.78;4881435;28;98367;-59
2021/11/16 08:52:03;;;;;;;;;;;;;;;15.74;59.91;101508.13;4884439;28;120360;-59
2021/11/16 08:54:35;;;;;;;;;;;;;;;15.65;59.98;101503.25;4881530;28;98117;-59
2021/11/16 08:57:03;;;;;;;;;;;;;;;15.59;59.99;101506.22;4886112;28;98074;-59
2021/11/16 08:59:28;;;;;;;;;;;;;;;15.52;60.41;101501.06;4886032;28;97969;-69
2021/11/16 09:02:01;;;;;;;;;;;;;;;15.45;60.39;101508.72;4864662;28;98550;-59
2021/11/16 09:04:28;;;;;;;;;;;;;;;15.40;60.24;101508.69;4882449;28;97854;-59
2021/11/16 09:06:56;;;;;;;;;;;;;;;15.35;60.51;101501.38;4884810;28;98951;-59
2021/11/16 09:09:22;;;;;;;;;;;;;;;15.33;60.44;101508.19;4866132;28;98511;-69
2021/11/16 09:12:03;;;;;;;;;;;;;;;15.31;60.48;101502.19;4865540;28;97783;-59
2021/11/16 09:14:30;;;;;;;;;;;;;;;15.31;60.27;101491.34;4863510;28;98179;-59
2021/11/16 09:16:56;;;;;;;;;;;;;;;15.34;60.61;101493.50;4864799;28;98801;-59
2021/11/16 09:19:30;;;;;;;;;;;;;;;15.33;60.62;101495.41;4864019;28;122022;-69
2021/11/16 09:21:56;;;;;;;;;;;;;;;15.33;60.58;101492.69;4865132;28;98018;-59
2021/11/16 09:24:30;;;;;;;;;;;;;;;15.41;60.45;101475.84;4849005;28;99138;-63
2021/11/16 09:27:42;;;;;;;;;;;;;;;15.45;60.42;101473.38;4866138;28;99012;-68
2021/11/16 09:29:48;;;;;;;;;;;;;;;15.50;60.52;101473.38;4858081;28;97980;-68
2021/11/16 09:32:17;;;;;;;;;;;;;;;15.54;60.41;101468.19;4877831;28;97829;-68
2021/11/16 09:34:45;;;;;;;;;;;;;;;15.53;60.94;101467.38;4882239;28;98217;-59
2021/11/16 09:37:22;;;;;;;;;;;;;;;15.54;60.66;101462.75;4863743;28;98156;-59
2021/11/16 09:39:59;;;;;;;;;;;;;;;15.57;60.85;101457.59;4865624;28;98104;-68
2021/11/16 09:42:33;;;;;;;;;;;;;;;15.55;60.70;101469.81;4870007;28;97845;-60
2021/11/16 09:45:09;;;;;;;;;;;;;;;15.54;60.75;101463.56;4881607;28;98836;-59
2021/11/16 09:47:39;;;;;;;;;;;;;;;15.52;61.00;101471.16;4865149;28;98711;-59
2021/11/16 09:50:17;;;;;;;;;;;;;;;15.50;61.03;101462.50;4865913;28;98104;-59
2021/11/16 09:52:46;;;;;;;;;;;;;;;15.51;60.97;101453.25;4875918;28;97842;-68
2021/11/16 09:55:20;;;;;;;;;;;;;;;15.56;61.22;101452.41;4882946;28;98285;-59
2021/11/16 09:58:00;;;;;;;;;;;;;;;15.64;60.91;101444.53;4883461;28;99190;-59
2021/11/16 10:00:32;;;;;;;;;;;;;;;15.67;61.05;101440.44;4870294;28;98213;-59
2021/11/16 10:03:08;;;;;;;;;;;;;;;15.69;60.98;101438.28;4848701;28;98104;-68
2021/11/16 10:05:39;;;;;;;;;;;;;;;15.73;60.99;101435.81;4865740;28;98595;-59
2021/11/16 10:08:06;;;;;;;;;;;;;;;15.75;61.17;101437.16;4883445;28;98950;-59
2021/11/16 10:10:34;;;;;;;;;;;;;;;15.77;61.03;101431.47;4881813;28;98363;-59
2021/11/16 10:13:11;;;;;;;;;;;;;;;15.77;61.35;101431.47;4881770;28;119356;-59
2021/11/16 10:15:39;;;;;;;;;;;;;;;15.77;61.23;101424.13;4883706;28;98270;-59
2021/11/16 10:18:05;;;;;;;;;;;;;;;15.76;61.49;101432.53;4882076;28;122426;-59
2021/11/16 10:20:34;;;;;;;;;;;;;;;15.75;61.52;101436.34;4883096;28;97910;-59
2021/11/16 10:23:02;;;;;;;;;;;;;;;15.74;61.44;101434.72;4881184;28;99201;-59
2021/11/16 10:25:29;;;;;;;;;;;;;;;15.70;61.45;101434.47;4883247;28;98314;-59
2021/11/16 10:28:04;;;;;;;;;;;;;;;15.67;61.47;101435.03;4876614;28;98843;-59
2021/11/16 10:30:30;;;;;;;;;;;;;;;15.64;61.67;101439.09;4865306;28;102646;-58
2021/11/16 10:33:14;;;;;;;;;;;;;;;15.61;61.80;101433.41;4865079;28;97830;-59
2021/11/16 10:35:51;;;;;;;;;;;;;;;15.60;61.70;101431.75;4882009;28;98680;-59
2021/11/16 10:38:19;;;;;;;;;;;;;;;15.61;61.75;101427.97;4867843;28;107779;-59
2021/11/16 10:40:45;;;;;;;;;;;;;;;15.65;61.86;101419.00;4883633;28;98368;-59
2021/11/16 10:43:11;;;;;;;;;;;;;;;15.70;61.71;101418.16;4882652;28;97683;-59
2021/11/16 10:45:46;;;;;;;;;;;;;;;15.71;61.73;101409.72;4864647;28;123566;-58
2021/11/16 10:48:14;;;;;;;;;;;;;;;15.76;61.62;101413.50;4865357;28;98778;-58
2021/11/16 10:50:42;;;;;;;;;;;;;;;15.79;61.62;101410.22;4875293;28;97949;-59
2021/11/16 10:53:14;;;;;;;;;;;;;;;15.82;61.63;101402.34;4867241;28;98365;-59
2021/11/16 10:55:44;;;;;;;;;;;;;;;15.78;61.85;101404.00;4883539;28;118658;-58
2021/11/16 10:58:12;;;;;;;;;;;;;;;15.74;62.39;101407.53;4882569;28;98090;-59
2021/11/16 11:00:50;;;;;;;;;;;;;;;15.75;61.88;101399.09;4884121;28;98291;-59
2021/11/16 11:03:28;;;;;;;;;;;;;;;15.74;62.06;101400.19;4873721;28;99449;-58
2021/11/16 11:05:59;;;;;;;;;;;;;;;15.75;62.01;101387.41;4864995;28;98475;-59
2021/11/16 11:08:33;;;;;;;;;;;;;;;15.71;62.14;101387.97;4847179;28;98227;-59
2021/11/16 11:11:00;;;;;;;;;;;;;;;15.70;62.50;101378.19;4864585;28;97984;-58
2021/11/16 11:13:30;;;;;;;;;;;;;;;15.70;62.36;101383.63;4854352;28;97920;-59
2021/11/16 11:15:56;;;;;;;;;;;;;;;15.69;62.53;101379.31;4883936;28;98254;-59
2021/11/16 11:18:49;;;;;;;;;;;;;;;15.71;62.44;101373.56;4882193;28;98701;-58
2021/11/16 11:21:39;;;;;;;;;;;;;;;15.67;62.50;101376.03;4879616;28;98717;-59
2021/11/16 11:24:11;;;;;;;;;;;;;;;15.71;62.53;101377.09;4882482;28;98147;-59
2021/11/16 11:26:44;;;;;;;;;;;;;;;15.75;62.52;101376.56;4883299;28;98984;-58
2021/11/16 11:29:42;;;;;;;;;;;;;;;15.81;62.18;101365.38;4883749;28;99027;-58
2021/11/16 11:32:17;;;;;;;;;;;;;;;15.81;62.37;101365.38;4883930;28;98045;-59
2021/11/16 11:34:50;;;;;;;;;;;;;;;15.81;62.58;101365.38;4867057;28;97715;-59
2021/11/16 11:37:21;;;;;;;;;;;;;;;15.86;62.29;101359.91;4866807;28;99330;-59
2021/11/16 11:39:59;;;;;;;;;;;;;;;15.92;62.11;101366.13;4884107;28;97756;-58
2021/11/16 11:42:28;;;;;;;;;;;;;;;15.98;62.24;101351.41;4864122;28;97927;-59
2021/11/16 11:44:57;;;;;;;;;;;;;;;16.13;62.24;101345.88;4876513;28;98363;-59
2021/11/16 11:47:31;;;;;;;;;;;;;;;16.19;62.20;101349.34;4885696;28;98274;-67
2021/11/16 11:49:58;;;;;;;;;;;;;;;16.25;62.02;101350.94;4886703;28;98561;-68
2021/11/16 11:52:24;;;;;;;;;;;;;;;16.28;61.98;101344.94;4885252;28;97868;-59
2021/11/16 11:54:50;;;;;;;;;;;;;;;16.31;62.14;101344.38;4866436;28;114143;-58
2021/11/16 11:57:17;;;;;;;;;;;;;;;16.36;61.94;101340.78;4884347;28;98248;-59
2021/11/16 11:59:43;;;;;;;;;;;;;;;16.37;62.03;101337.78;4885392;28;98865;-59
2021/11/16 12:02:08;;;;;;;;;;;;;;;16.40;62.30;101345.38;4884785;28;98042;-59
2021/11/16 12:04:36;;;;;;;;;;;;;;;16.45;62.27;101339.88;4879873;28;98108;-59
2021/11/16 12:07:03;;;;;;;;;;;;;;;16.51;62.10;101337.13;4866159;28;98153;-59
2021/11/16 12:09:29;;;;;;;;;;;;;;;16.55;62.11;101349.06;4866703;28;99064;-58
2021/11/16 12:11:55;;;;;;;;;;;;;;;16.58;62.02;101340.31;4848977;28;97875;-68
2021/11/16 12:14:43;;;;;;;;;;;;;;;16.62;62.15;101328.59;4880947;28;122280;-59
2021/11/16 12:17:12;;;;;;;;;;;;;;;16.64;62.17;101322.84;4853162;28;98452;-59
2021/11/16 12:19:40;;;;;;;;;;;;;;;16.71;62.22;101328.78;4885613;28;99115;-67
2021/11/16 12:22:14;;;;;;;;;;;;;;;16.76;62.03;101327.94;4884274;28;111708;-59
2021/11/16 12:24:41;;;;;;;;;;;;;;;16.78;62.12;101323.84;4878702;28;97787;-68
2021/11/16 12:27:07;;;;;;;;;;;;;;;16.83;62.17;101321.06;4866551;28;98898;-67
2021/11/16 12:29:45;;;;;;;;;;;;;;;16.92;61.99;101323.94;4878420;28;100572;-68
2021/11/16 12:32:17;;;;;;;;;;;;;;;16.94;62.04;101324.50;4883839;28;98358;-59
2021/11/16 12:34:49;;;;;;;;;;;;;;;16.93;62.12;101320.94;4883855;28;98246;-68
2021/11/16 12:37:46;;;;;;;;;;;;;;;16.87;62.27;101318.56;4882261;28;99414;-68
2021/11/16 12:40:24;;;;;;;;;;;;;;;16.79;62.44;101313.75;4879978;28;98636;-59
2021/11/16 12:43:17;;;;;;;;;;;;;;;16.74;62.60;101317.34;4864902;28;98243;-66
2021/11/16 12:45:44;;;;;;;;;;;;;;;16.67;62.60;101320.38;4883799;28;98115;-59
2021/11/16 12:48:12;;;;;;;;;;;;;;;16.61;62.92;101318.78;4884314;28;98944;-58
2021/11/16 12:50:38;;;;;;;;;;;;;;;16.59;62.93;101318.28;4883257;28;98634;-58